Time;durP1;ratioP1;P1;durP2;ratioP2;P2;SDS_P1;SDS_P2;PMS_P1;PMS_P2;Temp;Humidity;BMP_temperature;BMP_pressure;BME280_temperature;BME280_humidity;BME280_pressure;Samples;Min_cycle;Max_cycle;Signal;HPM_P1;HPM_P2
2023/10/24 00:00:56;;;;;;;33.25;31.65;;;;;;;20.22;64.77;97745.84;5056915;27;103906;-68
2023/10/24 00:03:29;;;;;;;32.58;31.00;;;;;;;20.35;64.12;97734.41;5039795;27;109197;-68
2023/10/24 00:06:02;;;;;;;36.10;34.45;;;;;;;20.68;63.04;97729.28;5058165;27;102721;-67
2023/10/24 00:08:30;;;;;;;49.65;47.55;;;;;;;20.78;62.36;97713.63;5056217;27;102624;-68
2023/10/24 00:11:02;;;;;;;65.30;62.60;;;;;;;20.94;61.48;97696.38;5038721;27;104432;-67
2023/10/24 00:13:30;;;;;;;73.20;70.20;;;;;;;21.17;60.58;97702.25;5055440;27;103270;-67
2023/10/24 00:15:59;;;;;;;87.40;83.90;;;;;;;21.33;59.60;97705.41;5057758;27;102994;-68
2023/10/24 00:18:28;;;;;;;79.93;76.87;;;;;;;21.48;59.23;97716.00;5040966;27;104270;-68
2023/10/24 00:20:56;;;;;;;85.18;81.88;;;;;;;21.55;59.02;97716.88;5057918;27;103951;-68
2023/10/24 00:23:24;;;;;;;82.88;79.60;;;;;;;21.52;58.75;97716.44;5059876;27;103178;-67
2023/10/24 00:25:54;;;;;;;88.60;85.20;;;;;;;21.57;58.58;97703.22;5059947;27;102780;-67
2023/10/24 00:28:22;;;;;;;87.15;83.75;;;;;;;21.55;58.94;97722.22;5058135;27;102623;-67
2023/10/24 00:30:51;;;;;;;49.70;47.17;;;;;;;20.96;60.62;97724.69;5038312;27;104422;-67
2023/10/24 00:33:20;;;;;;;59.45;56.88;;;;;;;21.13;59.90;97735.94;5038185;27;103233;-67
2023/10/24 00:35:51;;;;;;;73.28;70.28;;;;;;;21.36;59.58;97733.75;5051883;27;102647;-68
2023/10/24 00:38:19;;;;;;;70.70;67.80;;;;;;;21.04;59.30;97734.41;5039266;27;102736;-68
2023/10/24 00:40:47;;;;;;;66.23;63.50;;;;;;;21.05;59.83;97733.41;5038898;27;104272;-68
2023/10/24 00:43:17;;;;;;;58.00;55.55;;;;;;;20.86;60.66;97753.72;5054074;27;103181;-67
2023/10/24 00:45:46;;;;;;;74.85;71.82;;;;;;;21.08;59.76;97746.47;5057577;27;102706;-68
2023/10/24 00:48:14;;;;;;;73.15;70.25;;;;;;;21.20;59.35;97734.09;5058202;27;103938;-68
2023/10/24 00:50:43;;;;;;;91.97;88.50;;;;;;;21.46;58.83;97733.34;5056786;27;103942;-68
2023/10/24 00:53:12;;;;;;;91.93;88.43;;;;;;;21.56;58.23;97734.63;5037621;27;103591;-67
2023/10/24 00:55:40;;;;;;;95.18;91.68;;;;;;;21.59;58.26;97733.38;5040256;27;102790;-68
2023/10/24 00:58:09;;;;;;;84.78;81.45;;;;;;;21.52;58.09;97735.25;5058373;27;104304;-68
2023/10/24 01:00:42;;;;;;;71.13;68.22;;;;;;;20.85;59.70;97725.25;5037951;27;103290;-68
2023/10/24 01:03:11;;;;;;;48.65;46.58;;;;;;;21.03;61.45;97730.06;5038380;27;103410;-68
2023/10/24 01:05:41;;;;;;;71.90;69.07;;;;;;;21.38;60.00;97727.16;5050045;27;102717;-68
2023/10/24 01:08:11;;;;;;;64.53;61.92;;;;;;;21.24;60.06;97725.44;5057385;27;104152;-68
2023/10/24 01:10:40;;;;;;;52.70;50.50;;;;;;;21.12;60.55;97713.63;5057275;27;104062;-68
2023/10/24 01:13:09;;;;;;;51.53;49.22;;;;;;;20.72;60.62;97714.41;5054680;27;103274;-68
2023/10/24 01:15:39;;;;;;;51.83;49.67;;;;;;;21.04;60.51;97718.31;5038585;27;102837;-68
2023/10/24 01:18:09;;;;;;;56.00;53.60;;;;;;;21.07;60.82;97702.66;5037756;27;102634;-68
2023/10/24 01:20:39;;;;;;;65.28;62.67;;;;;;;21.23;60.23;97702.31;5036722;27;104184;-68
2023/10/24 01:23:09;;;;;;;86.60;83.07;;;;;;;21.32;58.99;97684.97;5070739;27;103188;-68
2023/10/24 01:25:39;;;;;;;61.72;59.25;;;;;;;21.17;60.20;97691.53;5041213;27;102612;-68
2023/10/24 01:28:08;;;;;;;68.82;66.22;;;;;;;21.37;59.66;97695.94;5041672;27;104394;-67
2023/10/24 01:30:37;;;;;;;73.13;70.32;;;;;;;21.42;59.59;97689.13;5040014;27;104651;-68
2023/10/24 01:33:05;;;;;;;74.95;72.03;;;;;;;21.46;58.70;97690.38;5058607;27;103414;-68
2023/10/24 01:35:33;;;;;;;60.60;57.90;;;;;;;21.11;59.47;97693.16;5057980;27;102562;-68
2023/10/24 01:38:02;;;;;;;41.15;39.25;;;;;;;20.66;61.40;97689.22;5041548;27;102757;-68
2023/10/24 01:40:31;;;;;;;38.95;37.15;;;;;;;20.67;62.23;97695.41;5056885;27;104825;-67
2023/10/24 01:42:59;;;;;;;40.47;38.60;;;;;;;20.50;62.42;97694.91;5044045;27;104240;-68
2023/10/24 01:45:27;;;;;;;29.10;27.73;;;;;;;19.84;66.43;97693.56;5062317;27;102909;-67
2023/10/24 01:47:55;;;;;;;33.03;31.63;;;;;;;20.47;63.70;97689.09;5040930;27;102792;-68
2023/10/24 01:50:23;;;;;;;57.37;55.07;;;;;;;20.88;62.30;97686.44;5040632;27;104760;-67
2023/10/24 01:52:53;;;;;;;35.40;33.73;;;;;;;20.21;64.48;97679.81;5041500;27;103417;-67
2023/10/24 01:55:21;;;;;;;47.83;45.80;;;;;;;20.82;62.45;97677.31;5041287;27;102735;-68
2023/10/24 01:57:51;;;;;;;73.65;70.65;;;;;;;21.17;60.54;97678.94;5045098;27;102843;-67
2023/10/24 02:00:20;;;;;;;77.57;74.47;;;;;;;21.30;60.25;97683.53;5039952;27;105360;-68
2023/10/24 02:02:48;;;;;;;74.57;71.57;;;;;;;21.26;59.50;97685.78;5041672;27;103238;-68
2023/10/24 02:05:18;;;;;;;78.65;75.65;;;;;;;21.41;59.16;97682.09;5044742;27;102804;-67
2023/10/24 02:07:46;;;;;;;76.75;73.65;;;;;;;21.33;59.08;97681.25;5040205;27;103932;-67
2023/10/24 02:10:14;;;;;;;74.93;71.95;;;;;;;21.01;59.70;97676.56;5040478;27;104152;-68
2023/10/24 02:12:42;;;;;;;73.70;70.90;;;;;;;21.18;60.12;97677.91;5041592;27;104324;-69
2023/10/24 02:15:12;;;;;;;75.80;72.70;;;;;;;21.28;59.77;97683.72;5044301;27;102798;-67
2023/10/24 02:17:41;;;;;;;81.25;78.13;;;;;;;21.43;59.45;97690.78;5039669;27;104151;-67
2023/10/24 02:20:10;;;;;;;85.80;82.50;;;;;;;21.31;59.39;97698.59;5038083;27;104215;-68
2023/10/24 02:22:39;;;;;;;73.40;70.50;;;;;;;21.33;59.22;97702.72;5056073;27;102996;-68
2023/10/24 02:25:08;;;;;;;68.23;65.43;;;;;;;21.24;59.33;97703.97;5040487;27;103143;-68
2023/10/24 02:27:38;;;;;;;57.67;55.17;;;;;;;21.18;59.89;97703.94;5059435;27;102685;-67
2023/10/24 02:30:08;;;;;;;50.90;48.63;;;;;;;20.75;60.79;97695.25;5040024;27;104637;-68
2023/10/24 02:32:38;;;;;;;32.88;31.27;;;;;;;20.13;64.23;97693.38;5060159;27;103220;-68
2023/10/24 02:35:07;;;;;;;34.65;32.95;;;;;;;20.39;64.09;97697.28;5058471;27;102626;-67
2023/10/24 02:37:35;;;;;;;52.17;49.77;;;;;;;20.87;61.71;97698.19;5043589;27;103747;-67
2023/10/24 02:40:03;;;;;;;46.60;44.50;;;;;;;20.81;61.46;97683.72;5041127;27;104159;-68
2023/10/24 02:42:31;;;;;;;39.25;37.42;;;;;;;20.62;62.04;97681.75;5041401;27;103475;-68
2023/10/24 02:44:59;;;;;;;37.13;35.33;;;;;;;20.07;63.47;97677.25;5058171;27;102739;-67
2023/10/24 02:47:27;;;;;;;33.90;32.30;;;;;;;20.19;64.10;97692.59;5041273;27;102807;-68
2023/10/24 02:49:57;;;;;;;37.07;35.07;;;;;;;20.24;62.98;97684.81;5054309;27;104543;-68
2023/10/24 02:52:25;;;;;;;40.63;38.70;;;;;;;20.27;62.63;97688.16;5041525;27;103221;-68
2023/10/24 02:54:52;;;;;;;50.77;48.57;;;;;;;20.33;61.65;97688.19;5059695;27;102848;-67
2023/10/24 02:57:20;;;;;;;69.57;66.80;;;;;;;20.89;60.33;97693.44;5042393;27;104467;-67
2023/10/24 02:59:48;;;;;;;63.00;60.40;;;;;;;20.56;61.42;97701.31;5037073;27;104018;-67
2023/10/24 03:02:16;;;;;;;68.55;65.65;;;;;;;20.78;60.65;97702.91;5058816;27;103424;-67
2023/10/24 03:04:44;;;;;;;58.95;56.30;;;;;;;20.75;60.40;97703.28;5032826;27;102722;-69
2023/10/24 03:07:15;;;;;;;68.90;66.10;;;;;;;20.60;60.26;97710.66;5052298;27;104685;-69
2023/10/24 03:09:43;;;;;;;77.78;74.72;;;;;;;21.00;59.71;97704.44;5037010;27;104231;-69
2023/10/24 03:12:13;;;;;;;88.18;84.80;;;;;;;21.17;59.19;97708.47;5039213;27;103465;-69
2023/10/24 03:14:41;;;;;;;51.43;49.27;;;;;;;20.73;60.94;97689.25;5036102;27;103010;-69
2023/10/24 03:17:09;;;;;;;47.93;45.83;;;;;;;20.47;62.50;97699.81;5037672;27;104436;-69
2023/10/24 03:19:37;;;;;;;39.17;37.30;;;;;;;19.80;64.82;97707.53;5038176;27;104359;-69
2023/10/24 03:22:05;;;;;;;35.78;34.08;;;;;;;20.03;65.22;97698.25;5036456;27;104154;-71
2023/10/24 03:24:34;;;;;;;32.60;31.10;;;;;;;19.87;65.64;97693.19;5041268;27;102841;-71
2023/10/24 03:27:03;;;;;;;29.20;27.52;;;;;;;19.26;67.86;97685.72;5039095;27;103094;-71
2023/10/24 03:29:34;;;;;;;40.03;38.22;;;;;;;20.47;63.72;97679.19;5058801;27;103275;-71
2023/10/24 03:32:03;;;;;;;35.58;34.00;;;;;;;20.37;63.46;97676.06;5055266;27;103312;-71
2023/10/24 03:34:35;;;;;;;60.50;58.10;;;;;;;20.91;61.36;97661.88;5057092;27;102715;-71
2023/10/24 03:37:03;;;;;;;52.90;50.70;;;;;;;20.61;61.70;97661.31;5038035;27;103692;-70
2023/10/24 03:39:31;;;;;;;74.83;71.73;;;;;;;20.86;59.98;97662.47;5058761;27;103575;-70
2023/10/24 03:42:02;;;;;;;72.97;69.97;;;;;;;20.92;60.36;97655.47;5056602;27;104156;-70
2023/10/24 03:44:30;;;;;;;72.75;69.70;;;;;;;20.73;60.36;97649.00;5040471;27;102726;-71
2023/10/24 03:46:57;;;;;;;35.97;34.17;;;;;;;19.95;64.83;97638.59;5058029;27;104217;-70
2023/10/24 03:49:28;;;;;;;36.03;34.13;;;;;;;19.77;65.07;97624.84;5053740;27;104013;-70
2023/10/24 03:51:56;;;;;;;31.88;30.23;;;;;;;19.29;67.46;97629.13;5058996;27;102975;-70
2023/10/24 03:54:24;;;;;;;34.13;32.53;;;;;;;19.67;66.57;97622.50;5039858;27;102723;-71
2023/10/24 03:56:52;;;;;;;30.05;28.55;;;;;;;18.56;71.26;97631.97;5039222;27;102916;-71
2023/10/24 03:59:21;;;;;;;33.57;32.07;;;;;;;19.77;67.73;97623.00;5055399;27;103662;-70
2023/10/24 04:01:49;;;;;;;37.92;36.20;;;;;;;20.55;64.24;97622.69;5060493;27;103181;-71
2023/10/24 04:04:17;;;;;;;44.85;42.85;;;;;;;20.31;63.09;97625.03;5065434;27;102575;-71
2023/10/24 04:06:45;;;;;;;34.95;33.05;;;;;;;19.35;67.36;97623.00;5059691;27;102619;-71
2023/10/24 04:09:13;;;;;;;23.27;21.77;;;;;;;18.86;70.56;97622.91;5039313;27;103500;-71
2023/10/24 04:12:01;;;;;;;22.90;21.63;;;;;;;18.90;71.05;97630.34;5058714;27;103321;-71
2023/10/24 04:14:31;;;;;;;26.08;24.77;;;;;;;20.38;65.09;97625.94;5058639;27;102677;-71
2023/10/24 04:16:58;;;;;;;31.73;30.20;;;;;;;20.80;62.87;97636.41;5062058;27;102951;-71
2023/10/24 04:19:27;;;;;;;37.13;35.13;;;;;;;20.27;62.46;97627.28;5057133;27;103396;-71
2023/10/24 04:21:55;;;;;;;23.33;22.02;;;;;;;18.18;73.66;97629.41;5057208;27;103249;-70
2023/10/24 04:24:22;;;;;;;26.58;24.98;;;;;;;19.59;67.59;97625.34;5037377;27;102834;-71
2023/10/24 04:26:50;;;;;;;25.70;24.50;;;;;;;20.29;65.22;97611.00;5063151;27;102880;-70
2023/10/24 04:29:18;;;;;;;28.05;26.65;;;;;;;20.18;64.12;97631.13;5061326;27;104118;-71
2023/10/24 04:31:49;;;;;;;34.83;33.20;;;;;;;20.60;62.70;97622.91;5058160;27;103329;-70
2023/10/24 04:34:17;;;;;;;28.15;26.67;;;;;;;20.00;64.69;97630.78;5057504;27;102698;-71
2023/10/24 04:36:46;;;;;;;51.13;48.92;;;;;;;20.87;61.62;97631.09;5057554;27;103943;-70
2023/10/24 04:39:14;;;;;;;55.15;52.70;;;;;;;20.94;60.41;97632.75;5060670;27;103410;-70
2023/10/24 04:41:42;;;;;;;48.37;46.17;;;;;;;20.51;61.19;97636.72;5058728;27;103229;-70
2023/10/24 04:44:12;;;;;;;28.67;27.17;;;;;;;20.27;63.87;97634.53;5039283;27;103309;-70
2023/10/24 04:46:40;;;;;;;37.83;35.77;;;;;;;20.55;62.27;97643.31;5060737;27;103641;-70
2023/10/24 04:49:10;;;;;;;27.92;26.25;;;;;;;19.83;64.14;97637.47;5056972;27;104103;-70
2023/10/24 04:51:38;;;;;;;26.48;25.17;;;;;;;20.22;64.32;97627.84;5058626;27;103306;-70
2023/10/24 04:54:08;;;;;;;27.40;25.70;;;;;;;19.51;66.63;97631.63;5054847;27;102726;-70
2023/10/24 04:56:36;;;;;;;26.35;24.90;;;;;;;19.88;65.77;97627.81;5058403;27;103135;-71
2023/10/24 04:59:04;;;;;;;27.33;25.58;;;;;;;19.41;66.93;97623.09;5058080;27;103474;-71
2023/10/24 05:01:37;;;;;;;27.92;26.33;;;;;;;20.00;65.02;97618.22;5055914;27;103240;-70
2023/10/24 05:04:06;;;;;;;28.02;26.27;;;;;;;19.64;65.79;97613.00;5061173;27;103133;-70
2023/10/24 05:06:35;;;;;;;26.38;24.48;;;;;;;19.70;66.74;97611.41;5053922;27;103246;-71
2023/10/24 05:09:04;;;;;;;33.20;31.63;;;;;;;20.68;63.16;97616.56;5056480;27;102928;-71
2023/10/24 05:11:32;;;;;;;53.67;51.20;;;;;;;20.90;61.86;97610.03;5036025;27;103910;-71
2023/10/24 05:13:59;;;;;;;50.30;47.90;;;;;;;20.85;61.13;97607.16;5035652;27;102731;-70
2023/10/24 05:16:27;;;;;;;54.60;52.28;;;;;;;21.01;61.01;97598.72;5058206;27;102679;-71
2023/10/24 05:18:55;;;;;;;58.50;55.88;;;;;;;21.01;60.70;97601.41;5057083;27;103284;-71
2023/10/24 05:21:23;;;;;;;57.88;55.13;;;;;;;20.93;60.03;97596.22;5057644;27;103262;-71
2023/10/24 05:23:53;;;;;;;30.88;29.17;;;;;;;20.16;63.15;97591.09;5058439;27;102632;-70
2023/10/24 05:26:21;;;;;;;27.90;26.20;;;;;;;19.77;65.16;97580.13;5057342;27;103615;-71
2023/10/24 05:28:51;;;;;;;28.30;26.80;;;;;;;20.15;64.56;97567.97;5054856;27;103262;-71
2023/10/24 05:31:20;;;;;;;33.80;31.92;;;;;;;20.41;62.25;97571.84;5058798;27;103263;-71
2023/10/24 05:33:49;;;;;;;42.15;40.08;;;;;;;20.64;61.77;97577.75;5034631;27;102782;-71
2023/10/24 05:36:18;;;;;;;45.25;43.15;;;;;;;20.61;62.07;97580.81;5052896;27;103098;-70
2023/10/24 05:38:46;;;;;;;58.93;56.53;;;;;;;21.00;61.08;97589.00;5051363;27;103657;-69
2023/10/24 05:41:15;;;;;;;71.63;68.73;;;;;;;21.20;59.36;97578.31;5051387;27;103254;-69
2023/10/24 05:43:43;;;;;;;32.20;30.40;;;;;;;20.04;63.34;97581.94;5054804;27;102746;-69
2023/10/24 05:46:11;;;;;;;29.27;27.60;;;;;;;20.16;64.20;97576.88;5052971;27;102983;-70
2023/10/24 05:48:42;;;;;;;28.52;27.02;;;;;;;20.40;63.49;97564.84;5057455;27;104097;-69
2023/10/24 05:51:10;;;;;;;44.80;42.90;;;;;;;20.77;61.97;97575.13;5055120;27;103276;-69
2023/10/24 05:53:38;;;;;;;27.70;26.00;;;;;;;19.71;65.21;97572.84;5048573;27;104272;-69
2023/10/24 05:56:07;;;;;;;28.13;26.63;;;;;;;20.17;64.67;97571.31;5055067;27;102789;-69
2023/10/24 05:58:36;;;;;;;30.35;28.95;;;;;;;20.65;63.05;97574.03;5055251;27;103749;-70
2023/10/24 06:01:05;;;;;;;29.83;28.33;;;;;;;20.13;63.14;97569.22;5035494;27;104194;-69
2023/10/24 06:03:33;;;;;;;37.85;36.15;;;;;;;20.78;61.98;97569.53;5025034;27;102935;-69
2023/10/24 06:06:02;;;;;;;42.47;40.42;;;;;;;20.45;61.59;97557.03;5048641;27;102808;-69
2023/10/24 06:08:30;;;;;;;27.02;25.42;;;;;;;20.20;64.28;97554.00;5037371;27;103528;-69
2023/10/24 06:10:59;;;;;;;27.48;25.80;;;;;;;20.11;65.38;97566.75;5036396;27;103214;-69
2023/10/24 06:13:27;;;;;;;33.00;31.35;;;;;;;20.67;62.80;97567.44;5057403;27;102927;-63
2023/10/24 06:16:06;;;;;;;31.98;30.08;;;;;;;20.53;62.97;97564.91;5060380;27;103996;-69
2023/10/24 06:18:34;;;;;;;37.47;35.67;;;;;;;20.76;62.13;97568.91;5041396;27;104332;-62
2023/10/24 06:21:04;;;;;;;45.92;43.67;;;;;;;20.65;61.38;97574.03;5059157;27;104157;-63
2023/10/24 06:23:33;;;;;;;35.23;33.40;;;;;;;20.72;62.16;97588.28;5058924;27;102741;-63
2023/10/24 06:26:01;;;;;;;42.60;40.70;;;;;;;20.81;62.03;97585.25;5061099;27;104428;-63
2023/10/24 06:28:29;;;;;;;28.20;26.58;;;;;;;20.08;64.31;97587.75;5057440;27;104000;-62
2023/10/24 06:30:59;;;;;;;27.13;25.65;;;;;;;20.38;64.74;97593.75;5038166;27;104193;-62
2023/10/24 06:33:29;;;;;;;43.72;41.75;;;;;;;20.94;62.31;97586.31;5056176;27;102715;-62
2023/10/24 06:35:58;;;;;;;51.70;49.07;;;;;;;20.87;61.47;97590.81;5059127;27;103671;-68
2023/10/24 06:38:26;;;;;;;30.90;29.15;;;;;;;20.66;63.83;97591.81;5057855;27;104112;-68
2023/10/24 06:40:55;;;;;;;33.67;31.77;;;;;;;19.62;67.15;97587.44;5055718;27;103319;-67
2023/10/24 06:43:24;;;;;;;28.00;26.30;;;;;;;20.56;64.75;97585.97;5059004;27;102676;-68
2023/10/24 06:45:52;;;;;;;30.80;28.90;;;;;;;20.37;63.81;97576.81;5054669;27;104126;-68
2023/10/24 06:48:21;;;;;;;28.57;26.90;;;;;;;20.32;66.09;97578.44;5054548;27;103501;-61
2023/10/24 06:50:49;;;;;;;29.75;27.92;;;;;;;20.42;64.43;97569.00;5039179;27;104301;-61
2023/10/24 06:53:17;;;;;;;32.72;30.92;;;;;;;20.58;64.14;97574.00;5054949;27;102942;-60
2023/10/24 06:55:45;;;;;;;33.75;31.33;;;;;;;20.78;63.41;97574.06;5058509;27;102681;-68
2023/10/24 06:58:13;;;;;;;37.42;34.95;;;;;;;20.37;63.83;97575.97;5058926;27;103182;-61
2023/10/24 07:00:41;;;;;;;26.27;23.90;;;;;;;19.49;68.78;97584.63;5038231;27;104140;-61
2023/10/24 07:03:09;;;;;;;31.73;29.52;;;;;;;20.67;65.03;97583.53;5058762;27;103959;-68
2023/10/24 07:05:39;;;;;;;38.38;36.00;;;;;;;20.97;63.36;97584.03;5056525;27;102883;-68
2023/10/24 07:08:07;;;;;;;42.42;39.83;;;;;;;21.18;63.29;97600.03;5054983;27;104247;-68
2023/10/24 07:10:35;;;;;;;43.17;40.40;;;;;;;21.07;62.26;97600.63;5058283;27;103270;-69
2023/10/24 07:13:05;;;;;;;29.17;26.43;;;;;;;19.99;67.18;97595.13;5054498;27;102979;-69
2023/10/24 07:15:33;;;;;;;24.53;22.33;;;;;;;20.18;68.16;97599.75;5040800;27;103480;-69
2023/10/24 07:18:01;;;;;;;35.37;33.27;;;;;;;20.84;66.31;97594.75;5061096;27;103257;-70
2023/10/24 07:20:29;;;;;;;26.10;24.00;;;;;;;19.99;68.38;97595.13;5038389;27;104129;-70
2023/10/24 07:22:58;;;;;;;29.40;27.40;;;;;;;20.22;67.62;97600.22;5058647;27;102859;-70
2023/10/24 07:25:26;;;;;;;34.00;32.10;;;;;;;20.66;66.96;97608.72;5055844;27;102759;-69
2023/10/24 07:27:56;;;;;;;33.03;30.83;;;;;;;20.63;65.84;97602.94;5060357;27;103241;-69
2023/10/24 07:30:24;;;;;;;32.92;31.17;;;;;;;21.01;64.98;97614.81;5057985;27;103213;-69
2023/10/24 07:32:54;;;;;;;36.73;34.80;;;;;;;21.19;63.98;97607.03;5057942;27;102823;-69
2023/10/24 07:35:22;;;;;;;34.38;32.67;;;;;;;21.26;63.91;97599.00;5035910;27;102985;-69
2023/10/24 07:37:50;;;;;;;35.27;33.37;;;;;;;21.26;63.71;97607.91;5038922;27;104116;-70
2023/10/24 07:40:20;;;;;;;32.13;30.52;;;;;;;21.29;63.63;97610.19;5056186;27;104103;-69
2023/10/24 07:42:48;;;;;;;31.35;29.67;;;;;;;21.33;63.26;97605.22;5056852;27;102790;-69
2023/10/24 07:45:16;;;;;;;29.87;28.17;;;;;;;21.26;63.60;97607.91;5056713;27;104094;-70
2023/10/24 07:47:45;;;;;;;33.10;31.30;;;;;;;21.21;63.79;97601.47;5057602;27;104227;-70
2023/10/24 07:50:13;;;;;;;29.75;27.88;;;;;;;20.91;65.66;97600.97;5057481;27;102612;-70
2023/10/24 07:52:43;;;;;;;32.85;31.02;;;;;;;21.15;64.72;97602.28;5055056;27;102695;-70
2023/10/24 07:55:11;;;;;;;32.10;30.20;;;;;;;21.10;64.85;97605.59;5042921;27;102759;-69
2023/10/24 07:57:40;;;;;;;31.83;30.33;;;;;;;21.41;63.82;97598.81;5059357;27;103480;-70
2023/10/24 08:00:10;;;;;;;34.38;32.65;;;;;;;21.55;63.35;97600.50;5058785;27;102986;-70
2023/10/24 08:02:41;;;;;;;44.33;42.28;;;;;;;21.84;62.17;97602.75;5056729;27;103799;-70
2023/10/24 08:05:09;;;;;;;32.92;30.83;;;;;;;21.59;62.58;97615.16;5038513;27;102743;-70
2023/10/24 08:07:37;;;;;;;33.42;31.48;;;;;;;21.81;62.61;97605.88;5054573;27;104263;-70
2023/10/24 08:10:07;;;;;;;37.97;36.13;;;;;;;21.79;62.75;97607.91;5055760;27;103170;-70
2023/10/24 08:12:37;;;;;;;37.50;35.70;;;;;;;21.69;62.76;97604.84;5058640;27;102754;-70
2023/10/24 08:15:07;;;;;;;37.88;35.97;;;;;;;21.66;63.37;97602.56;5057236;27;102658;-70
2023/10/24 08:17:35;;;;;;;36.80;35.10;;;;;;;21.74;62.96;97600.50;5056089;27;103262;-71
2023/10/24 08:20:05;;;;;;;38.05;36.25;;;;;;;22.01;62.16;97613.94;5054807;27;103469;-70
2023/10/24 08:22:33;;;;;;;32.47;30.98;;;;;;;21.91;62.36;97606.28;5058057;27;103191;-70
2023/10/24 08:25:04;;;;;;;34.35;32.63;;;;;;;21.78;62.42;97615.16;5058288;27;103930;-69
2023/10/24 08:27:32;;;;;;;34.25;32.50;;;;;;;21.55;63.49;97605.84;5057027;27;103068;-69
2023/10/24 08:30:00;;;;;;;33.03;31.35;;;;;;;21.24;63.83;97599.22;5057511;27;103373;-70
2023/10/24 08:32:30;;;;;;;29.92;28.30;;;;;;;21.24;65.32;97596.53;5056812;27;102521;-70
2023/10/24 08:34:58;;;;;;;34.17;32.38;;;;;;;21.70;63.96;97591.16;5055876;27;103837;-61
2023/10/24 08:37:29;;;;;;;31.42;29.75;;;;;;;21.78;63.22;97587.47;5038222;27;104234;-61
2023/10/24 08:39:57;;;;;;;30.73;29.23;;;;;;;21.74;63.62;97587.06;5054549;27;103187;-69
2023/10/24 08:42:25;;;;;;;32.55;30.75;;;;;;;21.84;63.38;97594.66;5057237;27;103716;-69
2023/10/24 08:44:54;;;;;;;30.40;28.90;;;;;;;22.03;62.84;97604.63;5055842;27;103048;-69
2023/10/24 08:47:23;;;;;;;32.13;30.40;;;;;;;21.97;62.92;97618.09;5058147;27;103930;-70
2023/10/24 08:49:53;;;;;;;30.77;29.13;;;;;;;22.03;62.81;97618.09;5057781;27;103296;-70
2023/10/24 08:52:21;;;;;;;33.03;31.37;;;;;;;22.17;62.57;97622.41;5058022;27;102735;-70
2023/10/24 08:55:00;;;;;;;37.17;35.37;;;;;;;21.97;62.58;97635.03;5058416;27;105335;-70
2023/10/24 08:57:30;;;;;;;33.03;31.13;;;;;;;21.74;64.56;97635.44;5056475;27;103578;-70
2023/10/24 08:59:59;;;;;;;24.50;22.90;;;;;;;20.99;67.84;97630.31;5056748;27;103291;-71
2023/10/24 09:02:29;;;;;;;24.52;23.10;;;;;;;21.35;67.53;97633.53;5054303;27;102664;-70
2023/10/24 09:05:02;;;;;;;31.70;29.95;;;;;;;21.62;66.14;97628.16;5056239;27;103632;-70
2023/10/24 09:07:31;;;;;;;40.83;39.00;;;;;;;21.92;64.93;97626.78;5037533;27;103407;-70
2023/10/24 09:09:59;;;;;;;38.13;36.20;;;;;;;22.00;64.23;97623.88;5056564;27;103218;-70
2023/10/24 09:12:28;;;;;;;37.57;35.87;;;;;;;22.01;64.29;97636.25;5055155;27;102976;-70
2023/10/24 09:14:58;;;;;;;37.55;35.75;;;;;;;22.20;63.58;97640.00;5057647;27;103774;-70
2023/10/24 09:17:26;;;;;;;39.90;38.00;;;;;;;22.21;63.05;97642.47;5038860;27;104054;-70
2023/10/24 09:19:56;;;;;;;44.22;42.25;;;;;;;22.25;62.56;97638.31;5058999;27;103111;-70
2023/10/24 09:22:27;;;;;;;39.78;37.88;;;;;;;22.25;62.86;97632.94;5053859;27;102729;-69
2023/10/24 09:24:57;;;;;;;41.83;39.70;;;;;;;21.98;63.71;97620.53;5059450;27;102930;-70
2023/10/24 09:27:27;;;;;;;39.75;37.85;;;;;;;22.10;64.23;97624.25;5056164;27;103258;-70
2023/10/24 09:29:56;;;;;;;40.50;38.63;;;;;;;22.07;64.76;97624.69;5039066;27;103318;-70
2023/10/24 09:32:23;;;;;;;38.70;36.70;;;;;;;22.09;64.32;97627.97;5058978;27;103942;-70
2023/10/24 09:34:54;;;;;;;39.22;37.40;;;;;;;22.16;64.32;97623.44;5036316;27;102835;-70
2023/10/24 09:37:23;;;;;;;35.70;33.90;;;;;;;21.89;66.01;97627.19;5032883;27;104551;-70
2023/10/24 09:39:57;;;;;;;40.78;38.70;;;;;;;21.96;65.89;97628.00;5055008;27;103073;-64
2023/10/24 09:42:27;;;;;;;34.30;32.35;;;;;;;21.74;66.12;97632.75;5033840;27;102968;-61
2023/10/24 09:45:02;;;;;;;32.90;30.83;;;;;;;21.76;66.02;97627.16;5052973;27;104596;-70
2023/10/24 09:47:33;;;;;;;41.35;39.45;;;;;;;22.13;65.02;97633.78;5054048;27;104210;-70
2023/10/24 09:50:05;;;;;;;38.77;36.97;;;;;;;22.08;65.26;97638.97;5059159;27;103616;-70
2023/10/24 09:52:33;;;;;;;34.78;32.83;;;;;;;21.63;65.72;97632.53;5058207;27;102817;-70
2023/10/24 09:55:04;;;;;;;33.70;31.90;;;;;;;21.94;65.34;97630.09;5059086;27;102916;-70
2023/10/24 09:57:33;;;;;;;37.85;35.75;;;;;;;21.83;65.59;97617.22;5057195;27;104072;-70
2023/10/24 10:00:03;;;;;;;29.50;27.80;;;;;;;21.77;66.52;97628.81;5057073;27;103219;-70
2023/10/24 10:02:41;;;;;;;35.40;33.60;;;;;;;22.19;65.38;97624.88;5057423;27;103049;-69
2023/10/24 10:05:10;;;;;;;29.93;28.17;;;;;;;21.43;66.77;97620.94;5056623;27;102803;-68
2023/10/24 10:07:40;;;;;;;22.05;20.23;;;;;;;20.44;71.87;97615.22;5053606;27;103723;-68
2023/10/24 10:10:12;;;;;;;24.77;23.33;;;;;;;21.56;68.24;97611.00;5059731;27;103298;-68
2023/10/24 10:12:41;;;;;;;40.30;38.20;;;;;;;21.54;65.67;97618.47;5061763;27;103059;-68
2023/10/24 10:15:27;;;;;;;21.67;20.13;;;;;;;21.18;69.30;97618.84;5060522;27;102602;-68
2023/10/24 10:18:05;;;;;;;26.27;24.67;;;;;;;21.17;68.23;97617.16;5056178;27;103319;-68
2023/10/24 10:20:46;;;;;;;24.05;22.45;;;;;;;21.22;69.06;97613.88;5039722;27;103798;-68
2023/10/24 10:24:08;;;;;;;22.60;21.20;;;;;;;21.45;68.38;97608.09;5059993;27;102975;-68
2023/10/24 10:26:57;;;;;;;39.57;37.60;;;;;;;21.72;66.83;97593.66;4942135;28;104338;-68
2023/10/24 10:29:38;;;;;;;36.60;34.67;;;;;;;21.77;66.47;97592.00;4945536;28;103326;-68
2023/10/24 10:32:19;;;;;;;38.25;36.25;;;;;;;22.02;66.10;97581.47;5019717;27;104239;-68
2023/10/24 10:35:07;;;;;;;39.47;37.58;;;;;;;22.28;65.63;97589.47;5059500;27;102843;-61
2023/10/24 10:37:35;;;;;;;42.72;40.70;;;;;;;22.20;64.99;97573.56;5034017;27;104026;-62
2023/10/24 10:40:24;;;;;;;40.83;38.80;;;;;;;22.26;65.14;97577.28;5057922;27;104064;-62
2023/10/24 10:42:54;;;;;;;40.30;38.50;;;;;;;22.37;64.81;97577.44;5041386;27;103027;-62
2023/10/24 10:45:27;;;;;;;42.53;40.50;;;;;;;22.33;64.67;97581.59;5040831;27;102658;-61
2023/10/24 10:47:59;;;;;;;40.88;38.75;;;;;;;22.43;64.27;97573.91;5055584;27;104694;-62
2023/10/24 10:50:28;;;;;;;44.00;42.00;;;;;;;22.53;64.33;97585.06;5058400;27;104448;-68
2023/10/24 10:53:18;;;;;;;40.38;38.38;;;;;;;22.48;64.38;97579.47;5053437;27;103296;-69
2023/10/24 10:56:11;;;;;;;39.75;37.83;;;;;;;22.62;63.75;97579.44;5053898;27;102767;-69
2023/10/24 10:59:10;;;;;;;48.33;46.03;;;;;;;22.70;63.55;97571.13;5058732;27;103274;-69
2023/10/24 11:01:55;;;;;;;44.80;42.30;;;;;;;22.19;64.63;97558.47;5041797;27;104016;-66
2023/10/24 11:04:24;;;;;;;35.38;33.45;;;;;;;22.24;65.50;97555.97;5057933;27;103254;-68
2023/10/24 11:06:54;;;;;;;39.40;37.50;;;;;;;22.60;64.28;97551.91;5040260;27;102717;-62
2023/10/24 11:09:24;;;;;;;44.90;42.77;;;;;;;22.75;64.06;97547.09;5060552;27;103058;-62
2023/10/24 11:12:26;;;;;;;42.22;40.03;;;;;;;22.49;63.61;97553.38;5058654;27;104190;-62
2023/10/24 11:15:27;;;;;;;37.38;35.42;;;;;;;22.51;64.94;97554.81;5058223;27;103057;-62
2023/10/24 11:18:00;;;;;;;41.70;39.63;;;;;;;22.74;64.59;97556.19;5057098;27;102789;-62
2023/10/24 11:20:28;;;;;;;43.03;40.80;;;;;;;22.61;64.35;97556.25;5039419;27;102721;-61
2023/10/24 11:22:58;;;;;;;40.15;38.15;;;;;;;22.58;64.12;97546.72;5039717;27;104304;-61